TimeCDT,TemperatureF,Dew PointF,Humidity,Sea Level PressureIn,VisibilityMPH,Wind Direction,Wind SpeedMPH,Gust SpeedMPH,PrecipitationIn,Events,Conditions,WindDirDegrees,DateUTC
12:15 AM,62.6,41.5,46,29.89,10.0,NW,5.8,-,N/A,,Scattered Clouds,320,2013-05-16 05:15:00
12:35 AM,59.5,42.8,54,29.88,10.0,NNW,4.6,-,N/A,,Scattered Clouds,340,2013-05-16 05:35:00
12:55 AM,58.8,44.2,58,29.88,10.0,NNW,4.6,-,N/A,,Scattered Clouds,340,2013-05-16 05:55:00
1:15 AM,59.9,44.1,56,29.88,10.0,NNW,5.8,-,N/A,,Scattered Clouds,340,2013-05-16 06:15:00
1:35 AM,61.0,43.9,53,29.89,10.0,NNW,6.9,-,N/A,,Clear,340,2013-05-16 06:35:00
1:55 AM,60.6,43.9,54,29.89,10.0,NNW,5.8,-,N/A,,Clear,340,2013-05-16 06:55:00
2:15 AM,59.0,45.0,60,29.89,10.0,NNW,6.9,-,N/A,,Clear,340,2013-05-16 07:15:00
2:35 AM,59.9,43.7,55,29.89,10.0,North,6.9,-,N/A,,Clear,350,2013-05-16 07:35:00
2:55 AM,59.2,43.9,57,29.89,10.0,North,6.9,-,N/A,,Clear,350,2013-05-16 07:55:00
3:15 AM,59.2,43.2,55,29.89,10.0,NNW,5.8,-,N/A,,Clear,340,2013-05-16 08:15:00
3:35 AM,57.2,43.7,61,29.89,10.0,North,4.6,-,N/A,,Clear,350,2013-05-16 08:35:00
3:55 AM,58.5,43.2,57,29.89,10.0,North,4.6,-,N/A,,Clear,360,2013-05-16 08:55:00
4:15 AM,55.9,43.7,63,29.89,10.0,North,4.6,-,N/A,,Scattered Clouds,360,2013-05-16 09:15:00
4:35 AM,56.3,43.3,62,29.89,10.0,North,5.8,-,N/A,,Scattered Clouds,360,2013-05-16 09:35:00
4:55 AM,57.2,42.8,59,29.89,10.0,North,5.8,-,N/A,,Scattered Clouds,360,2013-05-16 09:55:00
5:15 AM,55.6,43.7,64,29.90,10.0,North,5.8,-,N/A,,Clear,360,2013-05-16 10:15:00
5:35 AM,58.1,43.3,58,29.90,10.0,North,5.8,-,N/A,,Clear,360,2013-05-16 10:35:00
5:55 AM,58.1,45.0,62,29.91,10.0,North,4.6,-,N/A,,Clear,360,2013-05-16 10:55:00
6:15 AM,60.1,44.8,57,29.92,10.0,North,5.8,-,N/A,,Clear,10,2013-05-16 11:15:00
6:35 AM,59.5,45.7,60,29.92,10.0,North,5.8,-,N/A,,Clear,10,2013-05-16 11:35:00
6:55 AM,60.4,47.5,62,29.93,10.0,North,3.5,-,N/A,,Clear,360,2013-05-16 11:55:00
7:15 AM,62.4,46.4,56,29.93,10.0,Calm,Calm,-,N/A,,Clear,0,2013-05-16 12:15:00
7:35 AM,62.8,48.9,61,29.93,10.0,Calm,Calm,-,N/A,,Clear,0,2013-05-16 12:35:00
7:55 AM,67.8,46.4,46,29.94,10.0,Calm,Calm,-,N/A,,Clear,0,2013-05-16 12:55:00
8:15 AM,69.8,48.9,47,29.94,7.0,North,3.5,-,N/A,,Clear,350,2013-05-16 13:15:00
8:35 AM,71.8,48.2,43,29.94,10.0,SSW,6.9,-,N/A,,Clear,210,2013-05-16 13:35:00
8:55 AM,71.8,48.0,43,29.95,10.0,South,4.6,-,N/A,,Clear,180,2013-05-16 13:55:00
9:15 AM,71.2,48.9,45,29.95,10.0,Calm,Calm,-,N/A,,Clear,0,2013-05-16 14:15:00
9:35 AM,72.3,48.4,43,29.94,10.0,Calm,Calm,-,N/A,,Clear,0,2013-05-16 14:35:00
9:55 AM,74.1,48.2,40,29.94,10.0,SSE,3.5,-,N/A,,Clear,160,2013-05-16 14:55:00
10:15 AM,75.6,48.9,39,29.94,10.0,Calm,Calm,-,N/A,,Clear,0,2013-05-16 15:15:00
10:35 AM,77.4,43.2,30,29.94,10.0,Calm,Calm,-,N/A,,Clear,0,2013-05-16 15:35:00
10:55 AM,78.4,42.1,27,29.94,10.0,ESE,3.5,-,N/A,,Clear,110,2013-05-16 15:55:00
11:15 AM,78.1,40.1,26,29.94,10.0,Calm,Calm,-,N/A,,Clear,0,2013-05-16 16:15:00
11:35 AM,79.0,40.6,25,29.94,10.0,ESE,6.9,-,N/A,,Clear,120,2013-05-16 16:35:00
11:55 AM,79.0,37.2,22,29.93,10.0,SE,5.8,-,N/A,,Clear,140,2013-05-16 16:55:00
12:15 PM,80.4,38.5,22,29.92,10.0,SSE,5.8,-,N/A,,Clear,150,2013-05-16 17:15:00
12:35 PM,80.1,39.7,24,29.92,10.0,East,6.9,-,N/A,,Clear,100,2013-05-16 17:35:00
12:55 PM,80.1,41.9,26,29.92,10.0,SE,12.7,18.4,N/A,,Clear,130,2013-05-16 17:55:00
1:15 PM,79.9,43.0,27,29.91,10.0,East,10.4,18.4,N/A,,Clear,100,2013-05-16 18:15:00
1:35 PM,80.8,42.8,26,29.91,10.0,SE,9.2,-,N/A,,Clear,130,2013-05-16 18:35:00
2:15 PM,82.0,42.4,25,29.90,10.0,SE,9.2,-,N/A,,Clear,130,2013-05-16 19:15:00
2:35 PM,81.1,40.8,24,29.90,10.0,ESE,4.6,-,N/A,,Clear,120,2013-05-16 19:35:00
2:55 PM,81.9,42.8,25,29.89,10.0,East,9.2,-,N/A,,Clear,90,2013-05-16 19:55:00
3:15 PM,81.9,41.5,24,29.89,10.0,SE,9.2,-,N/A,,Clear,130,2013-05-16 20:15:00
3:35 PM,81.9,41.2,24,29.89,10.0,SE,9.2,18.4,N/A,,Clear,130,2013-05-16 20:35:00
3:55 PM,81.9,39.7,22,29.89,10.0,SSE,6.9,-,N/A,,Clear,150,2013-05-16 20:55:00
4:15 PM,82.2,38.5,21,29.88,10.0,ESE,5.8,-,N/A,,Clear,120,2013-05-16 21:15:00
4:35 PM,82.6,38.7,21,29.89,10.0,South,8.1,-,N/A,,Clear,180,2013-05-16 21:35:00
5:15 PM,82.2,40.8,23,29.89,10.0,South,11.5,17.3,N/A,,Clear,190,2013-05-16 22:15:00
5:35 PM,81.7,42.3,25,29.89,10.0,SSW,10.4,-,N/A,,Clear,200,2013-05-16 22:35:00
5:55 PM,82.0,40.8,23,29.88,10.0,SSE,9.2,-,N/A,,Clear,160,2013-05-16 22:55:00
6:15 PM,81.5,39.6,22,29.89,10.0,SSW,9.2,-,N/A,,Clear,210,2013-05-16 23:15:00
6:35 PM,81.0,39.7,23,29.88,10.0,SSW,10.4,-,N/A,,Clear,210,2013-05-16 23:35:00
6:55 PM,80.2,38.8,23,29.88,10.0,South,6.9,-,N/A,,Clear,170,2013-05-16 23:55:00
7:15 PM,79.3,41.0,25,29.88,10.0,South,4.6,-,N/A,,Clear,170,2013-05-17 00:15:00
7:35 PM,78.6,41.0,26,29.89,10.0,Calm,Calm,-,N/A,,Clear,0,2013-05-17 00:35:00
7:55 PM,77.9,40.8,27,29.89,10.0,Calm,Calm,-,N/A,,Clear,0,2013-05-17 00:55:00
8:15 PM,77.4,39.9,26,29.90,10.0,Calm,Calm,-,N/A,,Clear,0,2013-05-17 01:15:00
8:35 PM,76.3,40.1,27,29.91,10.0,ESE,3.5,-,N/A,,Clear,120,2013-05-17 01:35:00
8:55 PM,75.6,41.2,29,29.92,10.0,SE,3.5,-,N/A,,Clear,130,2013-05-17 01:55:00
9:15 PM,74.5,41.2,30,29.92,10.0,ESE,3.5,-,N/A,,Clear,120,2013-05-17 02:15:00
9:35 PM,70.2,43.7,38,29.92,10.0,East,3.5,-,N/A,,Clear,80,2013-05-17 02:35:00
9:55 PM,72.5,42.1,33,29.92,10.0,East,5.8,-,N/A,,Scattered Clouds,90,2013-05-17 02:55:00
10:15 PM,69.6,46.4,43,29.93,10.0,ENE,12.7,-,N/A,,Overcast,70,2013-05-17 03:15:00
10:35 PM,66.9,48.4,51,29.94,10.0,East,11.5,-,N/A,,Mostly Cloudy,80,2013-05-17 03:35:00
10:55 PM,65.8,47.3,51,29.94,10.0,East,11.5,-,N/A,,Clear,80,2013-05-17 03:55:00
11:15 PM,64.4,47.3,54,29.94,10.0,East,10.4,-,N/A,,Clear,90,2013-05-17 04:15:00
11:35 PM,63.5,46.4,54,29.94,10.0,East,10.4,-,N/A,,Clear,90,2013-05-17 04:35:00
11:55 PM,63.7,46.2,53,29.94,10.0,ESE,9.2,-,N/A,,Clear,110,2013-05-17 04:55:00